Ergebnisliste vom: 26.06.2016 - Sachsenlauf Coswig2016 - 11,8 km

weitere Ergebnisse >>

Platz Pl.m Pl.w Stnr. Name,Vorname Verein GJ Ak AKm AKw Endzeit RŘckst. WB
1 1   477 Koritz, Tim Skiklub Dresden Niedersedlitz 99 mU18 1   0:40:37 0:00:00 3
2 2   345 Lindig, Thomas SV Elbland Coswig-Mei├čen 70 M45 1   0:40:41 0:00:04 3
3 3   460 Dumdey, Rene Team Erdinger Alkoholfrei 78 M35 1   0:43:59 0:03:22 3
4 4   361 Mateos, Rapha├źl Ski Club Villard sur Bo├źge 94 M20 1   0:44:09 0:03:32 3
5 5   410 Sittner, Falk LG DUV 81 M35 2   0:45:04 0:04:27 3
6   1 348 Stich, Grit Radebeul 70 W45   1 0:45:29 0:04:52 3
7 6   339 Sebald, Maik Skiklub Dresden Niedersedlitz 67 M45 2   0:46:36 0:05:59 3
8 7   312 H├Ąrtelt, Stefan   81 M35 3   0:47:06 0:06:29 3
9 8   397 B├Ąger, Tobias   85 M30 1   0:47:19 0:06:42 3
10 9   427 Schwan, Ralph ATSV Kirchseeon 65 M50 1   0:47:28 0:06:51 3
11 10   473 Otto, Andreas SV Elbland Coswig Mei├čen 76 M40 1   0:47:34 0:06:57 3
12 11   432 Klyscz, Marcel SG Blau-Wei├č Klicken 85 M30 2   0:47:38 0:07:01 3
13 12   445 Oettler, J├╝rgen Bundeswehr OSH Dresden 61 M55 1   0:47:56 0:07:19 3
14 13   422 M├╝nch, Lukas CVJM Coswig 98 mU20 1   0:48:03 0:07:26 3
15   2 358 Schaffrath, Nadine   85 W30   1 0:48:04 0:07:27 3
16 14   328 G├╝nther, Timon Elias   98 mU20 2   0:48:06 0:07:29 3
17 15   327 Thieme, Thomas TSG Markkleeberg von 1903 56 M60 1   0:48:17 0:07:40 3
18 16   347 Liebscher, Bruno www.ofen-solar.com 91 M20 2   0:48:24 0:07:47 3
19 17   469 Neuber, Luis SV TuR Dresden   mU18 2   0:48:35 0:07:58 3
20 18   320 Jancker, Hans-Dieter SV Elbland Coswig-Mei├čen 52 M60 2   0:48:37 0:08:00 3
20   3 504 Lindig, Katrin SV Elbland Coswig Mei├čen 74 W40   1 0:48:37 0:08:00 3
22 19   444 Pfannerer, Jens Lattenkracher 72 M40 2   0:48:51 0:08:14 3
23 20   450 B├Âhme, Benjamin Dresden   mU18 3   0:49:25 0:08:48 3
24 21   350 Kuropka, Joram SV TuR Dresden   mU18 4   0:49:27 0:08:50 3
25 22   334 Martschink, Frank Rennschnecken Mittweida 68 M45 3   0:49:57 0:09:20 3
26 23   409 Scholtz, Christian privat 67 M45 4   0:50:24 0:09:47 3
27   4 398 Frankenstein, Sylvia SC DHfK Leipzig 76 W40   2 0:50:28 0:09:51 3
28   5 489 Rose, Elfi SG D├Âllnitztal M├╝geln 66 W50   1 0:50:43 0:10:06 3
29 24   466 Baum, Lutz SV Elbland Coswig Mei├čen 78 M35 4   0:50:47 0:10:10 3
30 25   335 Berger, Victor TuS Coswig 1920 53 M60 3   0:50:56 0:10:19 3
31   6 375 Marx, Christin TSV Dresden 64 W50   2 0:50:58 0:10:21 3
32 26   435 Hauk, Sylvio   79 M├Ąnner 1   0:51:06 0:10:29 6
33   7 353 Baum, Kathrin SV Elbland Coswig-Mei├čen 74 W40   3 0:51:24 0:10:47 3
34 27   388 Mende, Thomas Citylauf-Verein Dresden 67 M45 5   0:51:35 0:10:58 3
35 28   463 Just, Michael Coswig 81 M35 5   0:51:39 0:11:02 3
36   8 484 M├╝nch, Kristin SV Elbland Coswig Mei├čen 84 W30   2 0:51:58 0:11:21 3
37 29   493 Bottger, Jan bevegt 73 M40 3   0:51:59 0:11:22 3
37 29   506 Kunze, Steffen Animo Verein 78 M35 6   0:51:59 0:11:22 3
39 31   439 M├╝hlberg, Heiko Himmelfahrt-Kommando 71 M45 6   0:52:02 0:11:25 3
40   9 318 H├Ąnsel, Heike Vfl Dresden B├╝hlau 63 W50   3 0:52:04 0:11:27 3
41 32   479 Berndt, Lars Dresden 73 M40 4   0:52:11 0:11:34 3
42 33   485 Frauendorf, Stefan SV Elbland 75 M40 5   0:52:13 0:11:36 3
43   10 315 Dewitz, Silke ESV Lok D├Âbeln 67 W45   2 0:52:15 0:11:38 3
44   11 486 Reibig, Franziska TSV Cossebaude 88 W20   1 0:52:21 0:11:44 3
45 34   430 Straube, Volker Sport Freigang Team 58 M55 2   0:52:23 0:11:46 3
46 35   415 Kokel, Ricky Dresden 77 M35 7   0:52:24 0:11:47 3
47 36   507 Conradi, Jan-Philipp Dresden 89 M20 3   0:52:45 0:12:08 3
48 37   464 Baum, Rolf SV Elbland Coswig Mei├čen 53 M60 4   0:52:48 0:12:11 3
49 38   309 Matsune, Taku   65 M50 2   0:52:49 0:12:12 3
50 39   387 Walther, Michael   69 M45 7   0:53:00 0:12:23 3
51 40   349 K├╝lper, Helmut TSV Dresden 58 M55 3   0:53:04 0:12:27 3
52 41   462 H├Ąrtel, Tobias Klingenberg 79 M35 8   0:53:09 0:12:32 3
53 42   379 Noack, Tom   89 M20 4   0:53:37 0:13:00 3
54   12 311 Naumann, Karin Laufen total Team 75 W40   4 0:53:40 0:13:03 3
55 43   497 Klotzsche, Paul Dresden   mU18 5   0:53:43 0:13:06 3
56 44   471 Schubert, Torsten Dresden 68 M45 8   0:53:45 0:13:08 3
57 45   416 Karger, Sylvio VS-Coswig 63 M50 3   0:53:49 0:13:12 3
58 46   480 Haase, Marco Die Vereinslosen 78 M35 9   0:53:51 0:13:14 3
59 47   303 Henkel, Torsten after-work-runners.de 72 M40 6   0:53:54 0:13:17 3
60   13 384 Baldauf, Ute VfL Dresden-B├╝hlau 59 W55   1 0:53:55 0:13:18 3
61 48   431 K├╝rth, Marcus Motor S├Ârnewitz 84 M30 3   0:54:01 0:13:24 3
62 49   340 Winter, J├╝rgen LG TuS Weinb├Âhla 48 M65 1   0:54:05 0:13:28 3
63 50   481 Hickethier, Henri SSV Planeta Radebeul 77 M35 10   0:54:14 0:13:37 3
64   14 411 Bock, Ines LC Oelsnitz-Erzgebirge 69 W45   3 0:54:23 0:13:46 3
65 51   465 Skupin, Henrik Die Vereinslosen 78 M35 11   0:54:26 0:13:49 3
66 52   313 K├Âhler, Alexander   89 M20 5   0:54:35 0:13:58 3
67 53   304 Wildgrube, Steffen Freital 70 M45 9   0:54:41 0:14:04 3
68   15 322 Hellwig, Sindy   83 W30   3 0:54:45 0:14:08 3
69 54   505 Kafka, Jens Moritzburger TV 67 M45 10   0:54:46 0:14:09 3
70 55   373 Fernbach, J├Ârg Radeberger SV 50 M65 2   0:54:47 0:14:10 3
71 56   399 Neumann, Robert   67 M45 11   0:54:49 0:14:12 3
72 57   319 Zistel, J├Ârg Git los! 79 M35 12   0:55:05 0:14:28 3
73 58   301 Lobin, Ulrich Bergstadt Freiberg 47 M65 3   0:55:32 0:14:55 3
74 59   508 Jakat, Gerd Eestly husky race 63 M50 4   0:55:35 0:14:58 3
75   16 326 Steinke-Gr├Ąfe, Sylvia TSG Markkleeberg von 1903 63 W50   4 0:55:40 0:15:03 3
76 60   395 H├Ąnel, Marius SSV 1863 Sayda 96 M20 6   0:55:41 0:15:04 3
77 61   428 Schliwa, Alexander Team Tempus   mU18 6   0:55:42 0:15:05 3
78 62   436 Schneider, Christian privat 53 M60 5   0:55:44 0:15:07 3
79 63   392 Pietschmann, Lutz Die Schieritzer 61 M55 4   0:55:49 0:15:12 3
80 64   425 Torres Berrio, Carlos Alberto CVJM Coswig 90 M20 7   0:55:57 0:15:20 3
81 65   458 H├Âringklee, Thomas Neue Apotheke Coswig 59 M55 5   0:56:07 0:15:30 3
82   17 433 Kluttig, Ulrike TuS Coswig 1920 69 W45   4 0:56:14 0:15:37 3
83 66   374 Metz, Ralph Dresden Marathon 67 M45 12   0:56:20 0:15:43 3
84 67   426 Eichhorn, Andreas Patriots Runners 63 M50 5   0:56:23 0:15:46 3
85 68   424 Markardt, Robert CVJM Coswig   mU18 7   0:56:25 0:15:48 3
86   18 437 Neupold, Maja TuS Weinb├Âhla 1 wU16   1 0:56:29 0:15:52 3
87 69   336 Mey, Torsten   61 M55 6   0:56:30 0:15:53 3
88 70   510 M├Âller, Franz Team Frandra 85 M30 4   0:56:38 0:16:01 3
89 71   453 Hopf, Matthias Dresden 67 M45 13   0:56:40 0:16:03 3
90 72   503 H├Ą├čner, Marc Coswig 73 M40 7   0:56:46 0:16:09 3
91 73   316 Hohler, J├Ârg SV Robotron 66 M50 6   0:56:55 0:16:18 3
92 74   476 Ellmer, Franz Dresden 84 M30 5   0:56:58 0:16:21 3
93 75   498 Riehs, Sven LG Thalheim 69 M45 14   0:57:04 0:16:27 3
94 76   391 Bartsch, Holger LV Limbach 2000 73 M40 8   0:57:09 0:16:32 3
95   19 490 Conrad, Barbara Dresdner Ruder Club 60 W55   2 0:57:32 0:16:55 3
96 77   342 Schulz, Patrick Aktiv Sport Fichtenberg 86 M30 6   0:57:33 0:16:56 3
97 78   491 Weinhold, Horst Freiberg 60 M55 7   0:57:41 0:17:04 3
98   20 470 Krause, Claudia Fit 4 Marathon 76 W40   5 0:57:47 0:17:10 3
99   21 492 Weinhold, Regina SBB Freiberg 60 W55   3 0:57:53 0:17:16 3
100 79   414 Hoffmann, Maik   86 M30 7   0:57:55 0:17:18 3
101 80   365 Liebscher, Jens www.ofen-solar.com 67 M45 15   0:57:59 0:17:22 3
102   22 509 Gei├čmar, Sandra Dresden 88 W20   2 0:58:11 0:17:34 3
103 81   382 Heintze, Wolfram Kamenz 59 M55 8   0:58:19 0:17:42 3
104   23 386 Voigtl├Ąnder, Anne   74 W40   6 0:58:21 0:17:44 3
105 82   400 Melzer, R├╝diger GMRV 40 M75 1   0:58:22 0:17:45 3
106 83   423 Markardt, Oliver CVJM Coswig 98 mU20 3   0:58:24 0:17:47 3
107 84   487 Schmidt, Vincent-Maximilian Steinel├Ąufer 95 M20 8   0:58:26 0:17:49 3
108 85   341 Liebscher, Harald VS Dresden 48 M65 4   0:58:27 0:17:50 3
109 86   405 Wohs, Olaf Coswig 68 M45 16   0:58:29 0:17:52 3
110 87   478 D├Ârnbrack, Rene LT Speed 61 M55 9   0:58:30 0:17:53 3
111 88   512 Grimm, Frank Mei├čen 76 M40 9   0:58:31 0:17:54 3
112 89   381 Petr├ís, Laszlo Dresden Maraton 55 M60 6   0:58:35 0:17:58 3
113 90   494 Wagner, Birk Lauftreff Goethestra├če 78 M35 13   0:58:48 0:18:11 3
114 91   307 Murcek, Roman ESV Dresden - Hockey 86 M30 8   0:58:59 0:18:22 3
115 92   472 Oppermann, Reimund LG Traktor Ockrilla 64 M50 7   0:59:03 0:18:26 3
116   24 371 Lehmann, Anne-Kathrin   76 W40   7 0:59:05 0:18:28 3
117 93   380 Zippel, Tom   95 M20 9   0:59:19 0:18:42 3
118   25 321 Kolibius, Katja   78 W35   1 0:59:43 0:19:06 3
119 94   451 Riedel, J├Ârg SV Siltronic 58 M55 10   0:59:57 0:19:20 3
120 95   488 Zitzmann, Gert Dresden 70 M45 17   1:00:20 0:19:43 3
121   26 357 Mehnert, Elisabeth   96 W20   3 1:00:35 0:19:58 3
121   26 499 Riehs, Angela LG Thalheim 68 W45   5 1:00:35 0:19:58 3
123 96   331 Werner, Lutz   83 M30 9   1:00:37 0:20:00 3
124 97   378 Sch├Ąller, Michael   87 M20 10   1:00:38 0:20:01 3
125 98   412 N├Ânnig, J├╝rgen SV Wacker Mohorn 47 M65 5   1:00:41 0:20:04 3
126   28 407 Licht-Schwieck, Kerstin   67 W45   6 1:00:43 0:20:06 3
127 99   461 Schwan, Gunnar SV Elbland Coswig-Mei├čen 65 M50 8   1:00:44 0:20:07 3
128 100   329 Schulz, Mario Fichtenberg 60 M55 11   1:00:46 0:20:09 3
129 101   372 Kanitz, Willi SV Klitzschen 1920 43 M70 1   1:00:50 0:20:13 3
130 102   323 Weinhold, Hannes Gurkentruppe 86 M30 10   1:01:02 0:20:25 3
131 103   500 Beck, Jens Moritzburger Triathlonverein 66 M50 9   1:01:09 0:20:32 3
131   29 501 Beck, Katrin Ausdauer Training Dresden 78 W35   2 1:01:09 0:20:32 3
133   30 355 Stauch, Katrin Hohnsteinflitzer 68 W45   7 1:01:16 0:20:39 3
134 104   376 H├Ąnel, Steffen SSV 1863 Sayda 65 M50 10   1:01:24 0:20:47 3
135   31 368 Musall, Helena Einzelteilnehmerin 72 W40   8 1:01:27 0:20:50 3
136   32 366 Dietze, Doreen   83 W30   4 1:01:31 0:20:54 3
137 105   352 Th├╝mmler, J├Ârg GMRLV Freiberg 63 M50 11   1:01:32 0:20:55 3
138 106   420 Wengenmayr, Martin CVJM Coswig 90 M20 11   1:02:00 0:21:23 3
139   33 417 K├╝hnast, Jana Starbach 73 W40   9 1:02:10 0:21:33 3
140 107   467 Pohl, Henrik Klipphausen/Munzig 68 M45 18   1:02:25 0:21:48 3
141 108   360 Heinicke, Wallfried Oschatz/Thalheim 49 M65 6   1:02:38 0:22:01 3
142 109   474 Moormann, Markus Hannover 85 M30 11   1:02:59 0:22:22 3
143 110   344 Graul, Florian Radebeul 99 mU18 8   1:03:01 0:22:24 3
144   34 413 Hesse, Karina Turboschnecke 80 W35   3 1:03:03 0:22:26 3
145 111   402 Hertel, Matthias LAC Chemnitz 68 M45 19   1:03:07 0:22:30 3
146   35 393 Pietschmann, Rena Die Schieritzer 69 W45   8 1:03:14 0:22:37 3
147   36 408 Hahn, Claudia TSV Elektronik Gornsdorf 69 W45   9 1:03:18 0:22:41 3
148   37 449 B├Âhme, Birgit Dresden 64 W50   5 1:03:24 0:22:47 3
149   38 346 Hesse, Petra LSV Pirna 59 W55   4 1:03:38 0:23:01 3
150 112   438 Valder, Axel BLV Bautzen 64 M50 12   1:03:41 0:23:04 3
151 113   317 Zosel, Armin TSV 1862 Radeburg 34 M80+ 1   1:03:52 0:23:15 3
152 114   441 Bielitz, Eckehard Coswig 72 M40 10   1:03:57 0:23:20 3
153 115   394 D├Ąmmig, Holger SV Elbland 77 M35 14   1:04:04 0:23:27 3
154   39 337 Silabetzschky-Vogel, Gaby WSG Schwarzenberg-Wildena 57 W55   5 1:04:08 0:23:31 3
155 116   452 M├╝ller, J├╝rgen LG Geyer 42 M70 2   1:04:14 0:23:37 3
156   40 419 Junt, Lena CVJM Coswig 97 wU18/20   1 1:04:23 0:23:46 3
157   41 338 Mi├čbach, Marita Mei├čen 60 W55   6 1:04:31 0:23:54 3
158 117   343 Gursinsky, Frank Radebeul 65 M50 13   1:04:36 0:23:59 3
159   42 390 Krusche, Nadine LV Limbach 2000 81 W35   4 1:04:39 0:24:02 3
160 118   440 Gerharots, Christian Laufgruppe Dresden 76 M40 11   1:04:41 0:24:04 3
161 119   483 Hammer, Andre Mei├čen 76 M40 12   1:04:53 0:24:16 3
162   43 333 Martschink, Ines Rennschnecken Mittweida 70 W45   10 1:04:58 0:24:21 3
163   44 330 Simon-Lehmann, Claudia Wermsdorf 72 W40   10 1:05:01 0:24:24 3
164   45 324 Riedel, Annegret Gurkentruppe 86 W30   5 1:05:39 0:25:02 3
165 120   401 Walther, Andr├ę Gurkentruppe 88 M20 12   1:05:40 0:25:03 3
166   46 406 Philipp-Wohs, Peggy Coswig 74 W40   11 1:06:26 0:25:49 3
167 121   356 Riedrich, J├Ârg   65 M50 14   1:06:41 0:26:04 3
168   47 496 Irmscher, Antje Riesa 77 W35   5 1:06:45 0:26:08 3
169 122   495 Ruff, Oliver CT-Team 78 M35 15   1:07:12 0:26:35 3
170 123   502 Eberhart, Peter Gro├čenhain 61 M55 12   1:07:43 0:27:06 3
171 124   369 Damme, Eckhard LG Weinb├Âhla 49 M65 7   1:08:05 0:27:28 3
172 125   434 John, Axel L├Â├čnitzblitz 56 M60 7   1:08:23 0:27:46 3
173 126   305 Toufar/ Dr., Walter   41 M75 2   1:08:37 0:28:00 3
174 127   363 Oeser, Konrad Friedewald 48 M65 8   1:08:41 0:28:04 3
175   48 359 Fiedler, Rebecca Dresden 82 W30   6 1:08:47 0:28:10 3
176   49 443 Hiersigk, Jessica SC Poseidon Radebeul 95 W20   4 1:08:58 0:28:21 3
177   50 442 Hoy, Sina SC Poseidon Radebeul 95 W20   5 1:09:00 0:28:23 3
178   51 475 Ellmer, Magdalena Hannover 89 W20   6 1:09:02 0:28:25 3
179 128   468 Fiedler, Klaus Nau├člitz 53 M60 8   1:10:10 0:29:33 3
180 129   370 Frischat, Dirk Elbh├╝pfer Mei├čen 64 M50 15   1:10:29 0:29:52 3
181 130   447 Keil, Volkmar Coswig 52 M60 9   1:10:30 0:29:53 3
182 131   325 Bachmann, Mario   61 M55 13   1:10:33 0:29:56 3
183 132   367 Silbereisen, G├╝nter   44 M70 3   1:10:34 0:29:57 3
184   52 306 M├Âhlmann, Rena   91 W20   7 1:11:03 0:30:26 3
185   53 459 Rogge, Kathleen Dresden 81 W35   6 1:11:25 0:30:48 3
186   54 362 Fiedler, Kerstin Dresden 58 W55   7 1:12:33 0:31:56 3
187   55 351 Th├╝mmler, Katrin GMRLV Freiberg 65 W50   6 1:12:57 0:32:20 3
188   56 511 Grimm, Katharina Mei├čen 86 W30   7 1:13:13 0:32:36 3
189   57 308 Kopp, Viktoria ESV Dresden - Hockey 94 W20   8 1:14:34 0:33:57 3
190 133   302 Gro├čmann, Bert   63 M50 16   1:14:57 0:34:20 3
191 134   455 Wachsmann, J├Ârg Rennschnecken Mittweida 46 M70 4   1:15:01 0:34:24 3
192 135   429 Schmidt, Rainer   40 M75 3   1:15:14 0:34:37 3
193   58 454 Hentschel, Dagmar SG Klotzsche 66 W50   7 1:15:22 0:34:45 3
194 136   354 K├Ânig, Manfred Blau-Wei├č Dessau 39 M75 4   1:16:11 0:35:34 3
195 137   446 Heinrich, Dietmar SV Elbland Coswig Mei├čen 47 M65 9   1:18:47 0:38:10 3
196   59 448 Durdel, Anke Skiklub Dresden Niedersedlitz 74 W40   12 1:19:01 0:38:24 3
197 138   418 Kreye, Nils CVJM Coswig 81 M35 16   1:25:19 0:44:42 3
198   60 332 Martschink, Madeleine Rennschnecken Mittweida 97 wU18/20   2 1:28:14 0:47:37 3
199 139   457 Wagner, Dr. Harald SG Lok Hainsberg 34 M80+ 2   1:31:31 0:50:54 3
200 140   456 Beyer, Gunther TSV Einheit Grimma 34 M80+ 3   1:47:42 1:07:05 3
(c) 1990-2020 Blue Wonder Sport Promotion - Andreas Burow - Zeitnahme & Auswertung - www.Triathlon-Service.de